aviador You're here:

KRHI Decoded Metar

RHINELANDER in WI, USA
Report Time2017-10-19 20:53:00
UTC Time2017-10-19 21:58:05
Flight Rules vfr VFR
Wind210° at 07 kt
W.Decomp.*RWY 27: 3.8 kt HW 5.9 kt LCW
RWY 15: 3.2 kt HW 6.2 kt RCW
W.Rank210° ranks 7
Current wind is below 210° avg. (7.8)
Visibility9999 m
Phenomena:N/A
Clouds:N/A
Expected CloudBase > 8,400 ft AGL from Temp-Dew spread
CeilingNone
Temp19°C (ISA +7)
Dew Point-2°C (24% RH)
AAT14.2°C
QNH1018 hPa
Density Alt2,336 ft
Elevation1,591 ft
Report Wrong Elevation
Raw Report
METAR KRHI 192053Z AUTO 21007KT 10SM CLR 19/M02 A3005 RMK AO2 SLP182
T01891022 56010=

Extra information for KRHI:More info

Metar Taf Metar & Taf Last 4 Metars F.Rules Stats Wind Profile Meteogram Temp Stats Airport Information Weather charts Add Link Nearby VenuesMetar ALERT Operation Metar Decoded Social comments

AIRNAV info for KRHI